sensor_id;sensor_type;location;lat;lon;timestamp;P1;durP1;ratioP1;P2;durP2;ratioP2
67867;SDS011;54672;46.096;14.470;2023-11-21T00:00:12;39.10;;;19.30;;
67867;SDS011;54672;46.096;14.470;2023-11-21T00:02:39;38.63;;;19.65;;
67867;SDS011;54672;46.096;14.470;2023-11-21T00:05:06;42.28;;;19.10;;
67867;SDS011;54672;46.096;14.470;2023-11-21T00:07:33;37.83;;;19.17;;
67867;SDS011;54672;46.096;14.470;2023-11-21T00:09:59;36.95;;;19.13;;
67867;SDS011;54672;46.096;14.470;2023-11-21T00:12:24;40.53;;;19.50;;
67867;SDS011;54672;46.096;14.470;2023-11-21T00:14:49;52.03;;;23.45;;
67867;SDS011;54672;46.096;14.470;2023-11-21T00:17:15;50.85;;;23.35;;
67867;SDS011;54672;46.096;14.470;2023-11-21T00:19:40;52.45;;;24.45;;
67867;SDS011;54672;46.096;14.470;2023-11-21T00:22:07;44.53;;;22.65;;
67867;SDS011;54672;46.096;14.470;2023-11-21T00:24:34;49.80;;;22.85;;
67867;SDS011;54672;46.096;14.470;2023-11-21T00:27:00;43.10;;;21.80;;
67867;SDS011;54672;46.096;14.470;2023-11-21T00:29:25;46.40;;;21.33;;
67867;SDS011;54672;46.096;14.470;2023-11-21T00:31:51;45.40;;;22.13;;
67867;SDS011;54672;46.096;14.470;2023-11-21T00:34:16;51.55;;;22.42;;
67867;SDS011;54672;46.096;14.470;2023-11-21T00:36:41;44.70;;;21.85;;
67867;SDS011;54672;46.096;14.470;2023-11-21T00:39:07;43.97;;;22.02;;
67867;SDS011;54672;46.096;14.470;2023-11-21T00:41:33;45.70;;;21.42;;
67867;SDS011;54672;46.096;14.470;2023-11-21T00:43:59;39.65;;;19.70;;
67867;SDS011;54672;46.096;14.470;2023-11-21T00:46:25;42.15;;;20.63;;
67867;SDS011;54672;46.096;14.470;2023-11-21T00:48:54;39.88;;;20.48;;
67867;SDS011;54672;46.096;14.470;2023-11-21T00:51:19;40.40;;;19.15;;
67867;SDS011;54672;46.096;14.470;2023-11-21T00:53:45;39.65;;;20.67;;
67867;SDS011;54672;46.096;14.470;2023-11-21T00:56:13;39.72;;;19.98;;
67867;SDS011;54672;46.096;14.470;2023-11-21T00:58:40;46.60;;;21.45;;
67867;SDS011;54672;46.096;14.470;2023-11-21T01:01:11;44.92;;;21.38;;
67867;SDS011;54672;46.096;14.470;2023-11-21T01:03:36;44.10;;;22.35;;
67867;SDS011;54672;46.096;14.470;2023-11-21T01:06:02;45.70;;;23.60;;
67867;SDS011;54672;46.096;14.470;2023-11-21T01:08:28;46.00;;;23.52;;
67867;SDS011;54672;46.096;14.470;2023-11-21T01:10:53;45.50;;;21.42;;
67867;SDS011;54672;46.096;14.470;2023-11-21T01:13:19;43.10;;;22.80;;
67867;SDS011;54672;46.096;14.470;2023-11-21T01:15:46;50.28;;;22.73;;
67867;SDS011;54672;46.096;14.470;2023-11-21T01:18:11;46.28;;;22.17;;
67867;SDS011;54672;46.096;14.470;2023-11-21T01:20:37;51.08;;;22.23;;
67867;SDS011;54672;46.096;14.470;2023-11-21T01:23:02;46.28;;;23.17;;
67867;SDS011;54672;46.096;14.470;2023-11-21T01:25:27;48.67;;;23.48;;
67867;SDS011;54672;46.096;14.470;2023-11-21T01:27:53;50.03;;;24.00;;
67867;SDS011;54672;46.096;14.470;2023-11-21T01:30:18;56.17;;;25.50;;
67867;SDS011;54672;46.096;14.470;2023-11-21T01:32:44;48.72;;;23.13;;
67867;SDS011;54672;46.096;14.470;2023-11-21T01:35:10;51.28;;;22.92;;
67867;SDS011;54672;46.096;14.470;2023-11-21T01:37:36;51.83;;;24.63;;
67867;SDS011;54672;46.096;14.470;2023-11-21T01:40:02;52.08;;;23.98;;
67867;SDS011;54672;46.096;14.470;2023-11-21T01:42:30;52.40;;;24.92;;
67867;SDS011;54672;46.096;14.470;2023-11-21T01:44:56;53.22;;;23.05;;
67867;SDS011;54672;46.096;14.470;2023-11-21T01:47:21;47.78;;;23.17;;
67867;SDS011;54672;46.096;14.470;2023-11-21T01:49:47;45.13;;;21.23;;
67867;SDS011;54672;46.096;14.470;2023-11-21T01:52:13;51.72;;;24.13;;
67867;SDS011;54672;46.096;14.470;2023-11-21T01:54:39;46.70;;;22.48;;
67867;SDS011;54672;46.096;14.470;2023-11-21T01:57:06;39.58;;;20.65;;
67867;SDS011;54672;46.096;14.470;2023-11-21T01:59:35;47.22;;;21.00;;
67867;SDS011;54672;46.096;14.470;2023-11-21T02:02:03;43.92;;;20.45;;
67867;SDS011;54672;46.096;14.470;2023-11-21T02:04:35;40.10;;;18.75;;
67867;SDS011;54672;46.096;14.470;2023-11-21T02:07:01;35.75;;;17.08;;
67867;SDS011;54672;46.096;14.470;2023-11-21T02:09:30;32.85;;;17.27;;
67867;SDS011;54672;46.096;14.470;2023-11-21T02:11:58;36.67;;;16.45;;
67867;SDS011;54672;46.096;14.470;2023-11-21T02:14:24;33.40;;;16.58;;
67867;SDS011;54672;46.096;14.470;2023-11-21T02:16:51;29.10;;;17.10;;
67867;SDS011;54672;46.096;14.470;2023-11-21T02:19:18;41.03;;;19.50;;
67867;SDS011;54672;46.096;14.470;2023-11-21T02:21:47;42.80;;;19.30;;
67867;SDS011;54672;46.096;14.470;2023-11-21T02:24:15;44.20;;;21.55;;
67867;SDS011;54672;46.096;14.470;2023-11-21T02:26:42;44.47;;;22.02;;
67867;SDS011;54672;46.096;14.470;2023-11-21T02:29:08;44.40;;;21.25;;
67867;SDS011;54672;46.096;14.470;2023-11-21T02:31:37;49.95;;;21.88;;
67867;SDS011;54672;46.096;14.470;2023-11-21T02:34:10;43.80;;;22.27;;
67867;SDS011;54672;46.096;14.470;2023-11-21T02:36:38;44.58;;;22.25;;
67867;SDS011;54672;46.096;14.470;2023-11-21T02:39:04;44.53;;;21.05;;
67867;SDS011;54672;46.096;14.470;2023-11-21T02:41:29;47.35;;;22.52;;
67867;SDS011;54672;46.096;14.470;2023-11-21T02:43:55;44.83;;;22.63;;
67867;SDS011;54672;46.096;14.470;2023-11-21T02:46:20;45.55;;;21.40;;
67867;SDS011;54672;46.096;14.470;2023-11-21T02:48:46;41.67;;;20.77;;
67867;SDS011;54672;46.096;14.470;2023-11-21T02:51:11;40.60;;;20.13;;
67867;SDS011;54672;46.096;14.470;2023-11-21T02:53:36;46.55;;;20.80;;
67867;SDS011;54672;46.096;14.470;2023-11-21T02:56:03;40.25;;;19.75;;
67867;SDS011;54672;46.096;14.470;2023-11-21T02:58:29;40.55;;;20.42;;
67867;SDS011;54672;46.096;14.470;2023-11-21T03:00:55;44.10;;;19.30;;
67867;SDS011;54672;46.096;14.470;2023-11-21T03:03:21;39.45;;;19.55;;
67867;SDS011;54672;46.096;14.470;2023-11-21T03:05:48;39.90;;;19.92;;
67867;SDS011;54672;46.096;14.470;2023-11-21T03:08:14;40.25;;;20.80;;
67867;SDS011;54672;46.096;14.470;2023-11-21T03:10:39;40.90;;;19.88;;
67867;SDS011;54672;46.096;14.470;2023-11-21T03:13:05;36.22;;;19.60;;
67867;SDS011;54672;46.096;14.470;2023-11-21T03:15:30;36.20;;;17.63;;
67867;SDS011;54672;46.096;14.470;2023-11-21T03:17:57;42.78;;;18.70;;
67867;SDS011;54672;46.096;14.470;2023-11-21T03:20:23;37.45;;;18.00;;
67867;SDS011;54672;46.096;14.470;2023-11-21T03:22:48;36.67;;;18.95;;
67867;SDS011;54672;46.096;14.470;2023-11-21T03:25:14;38.53;;;19.13;;
67867;SDS011;54672;46.096;14.470;2023-11-21T03:27:42;39.83;;;19.45;;
67867;SDS011;54672;46.096;14.470;2023-11-21T03:30:09;35.63;;;19.05;;
67867;SDS011;54672;46.096;14.470;2023-11-21T03:32:36;37.65;;;19.10;;
67867;SDS011;54672;46.096;14.470;2023-11-21T03:35:01;33.95;;;18.38;;
67867;SDS011;54672;46.096;14.470;2023-11-21T03:37:27;38.13;;;18.83;;
67867;SDS011;54672;46.096;14.470;2023-11-21T03:39:53;42.35;;;20.58;;
67867;SDS011;54672;46.096;14.470;2023-11-21T03:42:20;44.10;;;20.35;;
67867;SDS011;54672;46.096;14.470;2023-11-21T03:44:45;41.40;;;20.27;;
67867;SDS011;54672;46.096;14.470;2023-11-21T03:47:11;45.55;;;20.45;;
67867;SDS011;54672;46.096;14.470;2023-11-21T03:49:36;44.22;;;19.35;;
67867;SDS011;54672;46.096;14.470;2023-11-21T03:52:02;40.10;;;19.77;;
67867;SDS011;54672;46.096;14.470;2023-11-21T03:54:28;39.78;;;19.33;;
67867;SDS011;54672;46.096;14.470;2023-11-21T03:56:53;39.33;;;19.55;;
67867;SDS011;54672;46.096;14.470;2023-11-21T03:59:19;42.70;;;19.30;;
67867;SDS011;54672;46.096;14.470;2023-11-21T04:01:44;39.38;;;19.98;;
67867;SDS011;54672;46.096;14.470;2023-11-21T04:04:09;39.55;;;19.58;;
67867;SDS011;54672;46.096;14.470;2023-11-21T04:06:35;36.70;;;18.98;;
67867;SDS011;54672;46.096;14.470;2023-11-21T04:09:02;39.50;;;19.60;;
67867;SDS011;54672;46.096;14.470;2023-11-21T04:11:29;46.40;;;21.80;;
67867;SDS011;54672;46.096;14.470;2023-11-21T04:13:55;40.88;;;19.60;;
67867;SDS011;54672;46.096;14.470;2023-11-21T04:16:20;43.78;;;21.42;;
67867;SDS011;54672;46.096;14.470;2023-11-21T04:18:46;41.35;;;18.10;;
67867;SDS011;54672;46.096;14.470;2023-11-21T04:21:11;39.50;;;21.13;;
67867;SDS011;54672;46.096;14.470;2023-11-21T04:23:37;44.67;;;19.83;;
67867;SDS011;54672;46.096;14.470;2023-11-21T04:26:02;42.60;;;20.33;;
67867;SDS011;54672;46.096;14.470;2023-11-21T04:28:28;42.85;;;20.88;;
67867;SDS011;54672;46.096;14.470;2023-11-21T04:30:53;39.65;;;19.52;;
67867;SDS011;54672;46.096;14.470;2023-11-21T04:33:19;42.13;;;20.52;;
67867;SDS011;54672;46.096;14.470;2023-11-21T04:35:44;44.15;;;20.48;;
67867;SDS011;54672;46.096;14.470;2023-11-21T04:38:10;41.63;;;19.73;;
67867;SDS011;54672;46.096;14.470;2023-11-21T04:40:35;39.10;;;19.77;;
67867;SDS011;54672;46.096;14.470;2023-11-21T04:43:01;42.20;;;20.45;;
67867;SDS011;54672;46.096;14.470;2023-11-21T04:45:26;40.47;;;19.45;;
67867;SDS011;54672;46.096;14.470;2023-11-21T04:47:52;43.78;;;21.10;;
67867;SDS011;54672;46.096;14.470;2023-11-21T04:50:17;36.58;;;18.73;;
67867;SDS011;54672;46.096;14.470;2023-11-21T04:52:44;44.65;;;20.27;;
67867;SDS011;54672;46.096;14.470;2023-11-21T04:55:09;39.45;;;20.02;;
67867;SDS011;54672;46.096;14.470;2023-11-21T04:57:35;31.00;;;17.02;;
67867;SDS011;54672;46.096;14.470;2023-11-21T05:00:02;37.95;;;18.45;;
67867;SDS011;54672;46.096;14.470;2023-11-21T05:02:30;34.30;;;17.30;;
67867;SDS011;54672;46.096;14.470;2023-11-21T05:04:56;37.08;;;16.77;;
67867;SDS011;54672;46.096;14.470;2023-11-21T05:07:22;36.05;;;18.83;;
67867;SDS011;54672;46.096;14.470;2023-11-21T05:09:47;35.03;;;17.55;;
67867;SDS011;54672;46.096;14.470;2023-11-21T05:12:13;35.05;;;17.42;;
67867;SDS011;54672;46.096;14.470;2023-11-21T05:14:39;35.28;;;17.40;;
67867;SDS011;54672;46.096;14.470;2023-11-21T05:17:05;36.60;;;17.77;;
67867;SDS011;54672;46.096;14.470;2023-11-21T05:19:30;32.70;;;17.02;;
67867;SDS011;54672;46.096;14.470;2023-11-21T05:21:57;36.67;;;18.27;;
67867;SDS011;54672;46.096;14.470;2023-11-21T05:24:24;42.38;;;19.52;;
67867;SDS011;54672;46.096;14.470;2023-11-21T05:26:49;36.17;;;17.67;;
67867;SDS011;54672;46.096;14.470;2023-11-21T05:29:15;35.35;;;18.00;;
67867;SDS011;54672;46.096;14.470;2023-11-21T05:31:40;39.40;;;18.92;;
67867;SDS011;54672;46.096;14.470;2023-11-21T05:34:05;44.47;;;19.73;;
67867;SDS011;54672;46.096;14.470;2023-11-21T05:36:31;42.78;;;18.55;;
67867;SDS011;54672;46.096;14.470;2023-11-21T05:38:56;31.42;;;16.85;;
67867;SDS011;54672;46.096;14.470;2023-11-21T05:41:22;33.22;;;16.85;;
67867;SDS011;54672;46.096;14.470;2023-11-21T05:43:48;38.80;;;18.02;;
67867;SDS011;54672;46.096;14.470;2023-11-21T05:46:13;31.38;;;17.65;;
67867;SDS011;54672;46.096;14.470;2023-11-21T05:48:39;36.75;;;17.42;;
67867;SDS011;54672;46.096;14.470;2023-11-21T05:51:05;37.03;;;17.98;;
67867;SDS011;54672;46.096;14.470;2023-11-21T05:53:31;36.30;;;18.20;;
67867;SDS011;54672;46.096;14.470;2023-11-21T05:55:57;36.38;;;17.48;;
67867;SDS011;54672;46.096;14.470;2023-11-21T05:58:22;42.53;;;18.65;;
67867;SDS011;54672;46.096;14.470;2023-11-21T06:00:48;38.38;;;18.70;;
67867;SDS011;54672;46.096;14.470;2023-11-21T06:03:14;34.35;;;17.73;;
67867;SDS011;54672;46.096;14.470;2023-11-21T06:05:39;37.17;;;18.35;;
67867;SDS011;54672;46.096;14.470;2023-11-21T06:08:05;37.75;;;17.90;;
67867;SDS011;54672;46.096;14.470;2023-11-21T06:10:31;32.42;;;18.48;;
67867;SDS011;54672;46.096;14.470;2023-11-21T06:12:57;38.92;;;17.77;;
67867;SDS011;54672;46.096;14.470;2023-11-21T06:15:23;35.13;;;17.48;;
67867;SDS011;54672;46.096;14.470;2023-11-21T06:17:48;38.22;;;19.35;;
67867;SDS011;54672;46.096;14.470;2023-11-21T06:20:17;37.70;;;19.00;;
67867;SDS011;54672;46.096;14.470;2023-11-21T06:22:43;32.67;;;18.50;;
67867;SDS011;54672;46.096;14.470;2023-11-21T06:25:11;35.83;;;17.50;;
67867;SDS011;54672;46.096;14.470;2023-11-21T06:27:44;34.55;;;16.80;;
67867;SDS011;54672;46.096;14.470;2023-11-21T06:30:11;32.25;;;17.80;;
67867;SDS011;54672;46.096;14.470;2023-11-21T06:32:38;32.38;;;16.85;;
67867;SDS011;54672;46.096;14.470;2023-11-21T06:35:05;34.28;;;16.73;;
67867;SDS011;54672;46.096;14.470;2023-11-21T06:37:31;38.45;;;18.58;;
67867;SDS011;54672;46.096;14.470;2023-11-21T06:39:57;37.53;;;18.17;;
67867;SDS011;54672;46.096;14.470;2023-11-21T06:42:27;33.05;;;17.23;;
67867;SDS011;54672;46.096;14.470;2023-11-21T06:44:54;36.22;;;17.42;;
67867;SDS011;54672;46.096;14.470;2023-11-21T06:47:22;38.88;;;17.88;;
67867;SDS011;54672;46.096;14.470;2023-11-21T06:49:50;38.63;;;18.75;;
67867;SDS011;54672;46.096;14.470;2023-11-21T06:52:15;36.28;;;18.08;;
67867;SDS011;54672;46.096;14.470;2023-11-21T06:54:41;35.50;;;16.95;;
67867;SDS011;54672;46.096;14.470;2023-11-21T06:57:06;40.15;;;18.75;;
67867;SDS011;54672;46.096;14.470;2023-11-21T06:59:32;36.20;;;19.50;;
67867;SDS011;54672;46.096;14.470;2023-11-21T07:01:58;38.45;;;18.55;;
67867;SDS011;54672;46.096;14.470;2023-11-21T07:04:23;37.75;;;19.27;;
67867;SDS011;54672;46.096;14.470;2023-11-21T07:06:50;37.72;;;19.42;;
67867;SDS011;54672;46.096;14.470;2023-11-21T07:09:16;40.00;;;20.05;;
67867;SDS011;54672;46.096;14.470;2023-11-21T07:11:42;36.83;;;19.77;;
67867;SDS011;54672;46.096;14.470;2023-11-21T07:14:07;37.38;;;19.17;;
67867;SDS011;54672;46.096;14.470;2023-11-21T07:16:36;38.97;;;19.27;;
67867;SDS011;54672;46.096;14.470;2023-11-21T07:19:05;35.25;;;18.23;;
67867;SDS011;54672;46.096;14.470;2023-11-21T07:21:32;32.15;;;17.10;;
67867;SDS011;54672;46.096;14.470;2023-11-21T07:23:58;35.28;;;17.25;;
67867;SDS011;54672;46.096;14.470;2023-11-21T07:26:27;32.67;;;17.52;;
67867;SDS011;54672;46.096;14.470;2023-11-21T07:28:53;39.83;;;17.70;;
67867;SDS011;54672;46.096;14.470;2023-11-21T07:31:19;32.58;;;16.65;;
67867;SDS011;54672;46.096;14.470;2023-11-21T07:33:44;34.47;;;15.02;;
67867;SDS011;54672;46.096;14.470;2023-11-21T07:36:13;36.20;;;18.10;;
67867;SDS011;54672;46.096;14.470;2023-11-21T07:38:39;33.97;;;17.05;;
67867;SDS011;54672;46.096;14.470;2023-11-21T07:41:05;36.88;;;17.83;;
67867;SDS011;54672;46.096;14.470;2023-11-21T07:43:33;35.35;;;17.55;;
67867;SDS011;54672;46.096;14.470;2023-11-21T07:46:00;34.22;;;17.85;;
67867;SDS011;54672;46.096;14.470;2023-11-21T07:48:28;38.28;;;18.00;;
67867;SDS011;54672;46.096;14.470;2023-11-21T07:50:54;33.35;;;17.60;;
67867;SDS011;54672;46.096;14.470;2023-11-21T07:53:19;38.95;;;19.88;;
67867;SDS011;54672;46.096;14.470;2023-11-21T07:55:45;32.33;;;17.15;;
67867;SDS011;54672;46.096;14.470;2023-11-21T07:58:12;36.67;;;20.40;;
67867;SDS011;54672;46.096;14.470;2023-11-21T08:00:38;39.38;;;20.27;;
67867;SDS011;54672;46.096;14.470;2023-11-21T08:03:04;38.40;;;19.33;;
67867;SDS011;54672;46.096;14.470;2023-11-21T08:05:30;39.10;;;19.15;;
67867;SDS011;54672;46.096;14.470;2023-11-21T08:07:56;37.15;;;19.08;;
67867;SDS011;54672;46.096;14.470;2023-11-21T08:10:21;38.92;;;19.55;;
67867;SDS011;54672;46.096;14.470;2023-11-21T08:12:47;39.40;;;19.20;;
67867;SDS011;54672;46.096;14.470;2023-11-21T08:15:13;27.90;;;13.82;;
67867;SDS011;54672;46.096;14.470;2023-11-21T08:17:39;29.70;;;14.52;;
67867;SDS011;54672;46.096;14.470;2023-11-21T08:20:05;34.25;;;15.43;;
67867;SDS011;54672;46.096;14.470;2023-11-21T08:22:31;35.63;;;17.45;;
67867;SDS011;54672;46.096;14.470;2023-11-21T08:24:57;39.58;;;18.48;;
67867;SDS011;54672;46.096;14.470;2023-11-21T08:27:23;37.28;;;19.52;;
67867;SDS011;54672;46.096;14.470;2023-11-21T08:29:48;39.38;;;20.02;;
67867;SDS011;54672;46.096;14.470;2023-11-21T08:32:14;37.60;;;18.90;;
67867;SDS011;54672;46.096;14.470;2023-11-21T08:34:40;40.47;;;20.45;;
67867;SDS011;54672;46.096;14.470;2023-11-21T08:37:08;40.00;;;19.27;;
67867;SDS011;54672;46.096;14.470;2023-11-21T08:39:33;41.85;;;20.73;;
67867;SDS011;54672;46.096;14.470;2023-11-21T08:41:58;40.35;;;20.55;;
67867;SDS011;54672;46.096;14.470;2023-11-21T08:44:24;41.47;;;20.27;;
67867;SDS011;54672;46.096;14.470;2023-11-21T08:46:50;39.85;;;18.85;;
67867;SDS011;54672;46.096;14.470;2023-11-21T08:49:15;39.88;;;17.95;;
67867;SDS011;54672;46.096;14.470;2023-11-21T08:51:40;36.88;;;19.40;;
67867;SDS011;54672;46.096;14.470;2023-11-21T08:54:06;37.58;;;18.00;;
67867;SDS011;54672;46.096;14.470;2023-11-21T08:56:36;36.70;;;17.42;;
67867;SDS011;54672;46.096;14.470;2023-11-21T08:59:01;28.65;;;14.38;;
67867;SDS011;54672;46.096;14.470;2023-11-21T09:01:30;34.70;;;16.17;;
67867;SDS011;54672;46.096;14.470;2023-11-21T09:03:57;34.42;;;16.88;;
67867;SDS011;54672;46.096;14.470;2023-11-21T09:06:23;30.90;;;15.30;;
67867;SDS011;54672;46.096;14.470;2023-11-21T09:08:49;29.05;;;13.57;;
67867;SDS011;54672;46.096;14.470;2023-11-21T09:11:14;28.73;;;13.75;;
67867;SDS011;54672;46.096;14.470;2023-11-21T09:13:40;25.30;;;12.70;;
67867;SDS011;54672;46.096;14.470;2023-11-21T09:16:05;26.85;;;13.18;;
67867;SDS011;54672;46.096;14.470;2023-11-21T09:18:31;24.55;;;13.35;;
67867;SDS011;54672;46.096;14.470;2023-11-21T09:20:56;26.50;;;13.25;;
67867;SDS011;54672;46.096;14.470;2023-11-21T09:23:22;23.60;;;12.05;;
67867;SDS011;54672;46.096;14.470;2023-11-21T09:25:47;24.10;;;12.95;;
67867;SDS011;54672;46.096;14.470;2023-11-21T09:28:15;25.63;;;13.02;;
67867;SDS011;54672;46.096;14.470;2023-11-21T09:30:40;24.77;;;12.40;;
67867;SDS011;54672;46.096;14.470;2023-11-21T09:33:06;19.95;;;10.25;;
67867;SDS011;54672;46.096;14.470;2023-11-21T09:35:31;21.85;;;11.30;;
67867;SDS011;54672;46.096;14.470;2023-11-21T09:37:57;19.52;;;10.07;;
67867;SDS011;54672;46.096;14.470;2023-11-21T09:40:23;15.68;;;9.85;;
67867;SDS011;54672;46.096;14.470;2023-11-21T09:42:55;19.15;;;10.00;;
67867;SDS011;54672;46.096;14.470;2023-11-21T09:45:25;19.92;;;11.25;;
67867;SDS011;54672;46.096;14.470;2023-11-21T09:47:53;22.02;;;10.45;;
67867;SDS011;54672;46.096;14.470;2023-11-21T09:50:22;20.75;;;11.18;;
67867;SDS011;54672;46.096;14.470;2023-11-21T09:52:52;21.20;;;10.90;;
67867;SDS011;54672;46.096;14.470;2023-11-21T09:55:19;18.30;;;10.52;;
67867;SDS011;54672;46.096;14.470;2023-11-21T09:57:47;19.63;;;9.77;;
67867;SDS011;54672;46.096;14.470;2023-11-21T10:00:13;22.38;;;10.40;;
67867;SDS011;54672;46.096;14.470;2023-11-21T10:02:42;20.17;;;11.02;;
67867;SDS011;54672;46.096;14.470;2023-11-21T10:05:08;22.50;;;11.57;;
67867;SDS011;54672;46.096;14.470;2023-11-21T10:07:38;19.70;;;10.30;;
67867;SDS011;54672;46.096;14.470;2023-11-21T10:10:06;20.45;;;9.98;;
67867;SDS011;54672;46.096;14.470;2023-11-21T10:12:33;19.65;;;11.02;;
67867;SDS011;54672;46.096;14.470;2023-11-21T10:15:00;21.55;;;10.45;;
67867;SDS011;54672;46.096;14.470;2023-11-21T10:17:28;20.77;;;11.27;;
67867;SDS011;54672;46.096;14.470;2023-11-21T10:20:01;18.05;;;10.35;;
67867;SDS011;54672;46.096;14.470;2023-11-21T10:22:29;19.35;;;10.25;;
67867;SDS011;54672;46.096;14.470;2023-11-21T10:24:54;17.95;;;10.55;;
67867;SDS011;54672;46.096;14.470;2023-11-21T10:27:19;17.38;;;10.38;;
67867;SDS011;54672;46.096;14.470;2023-11-21T10:29:45;21.45;;;9.80;;
67867;SDS011;54672;46.096;14.470;2023-11-21T10:32:11;18.95;;;10.43;;
67867;SDS011;54672;46.096;14.470;2023-11-21T10:34:37;17.58;;;9.45;;
67867;SDS011;54672;46.096;14.470;2023-11-21T10:37:12;16.00;;;8.65;;
67867;SDS011;54672;46.096;14.470;2023-11-21T10:39:38;18.75;;;9.60;;
67867;SDS011;54672;46.096;14.470;2023-11-21T10:42:04;17.10;;;9.40;;
67867;SDS011;54672;46.096;14.470;2023-11-21T10:44:34;16.80;;;8.60;;
67867;SDS011;54672;46.096;14.470;2023-11-21T10:46:59;16.92;;;9.40;;
67867;SDS011;54672;46.096;14.470;2023-11-21T10:49:26;16.50;;;9.48;;
67867;SDS011;54672;46.096;14.470;2023-11-21T10:51:55;18.27;;;8.55;;
67867;SDS011;54672;46.096;14.470;2023-11-21T10:54:21;11.93;;;7.13;;
67867;SDS011;54672;46.096;14.470;2023-11-21T10:56:48;11.50;;;6.32;;
67867;SDS011;54672;46.096;14.470;2023-11-21T10:59:16;15.05;;;7.00;;
67867;SDS011;54672;46.096;14.470;2023-11-21T11:01:44;14.27;;;6.90;;
67867;SDS011;54672;46.096;14.470;2023-11-21T11:04:11;11.40;;;6.95;;
67867;SDS011;54672;46.096;14.470;2023-11-21T11:06:51;11.32;;;6.35;;
67867;SDS011;54672;46.096;14.470;2023-11-21T11:09:20;12.95;;;6.63;;
67867;SDS011;54672;46.096;14.470;2023-11-21T11:11:46;12.20;;;6.45;;
67867;SDS011;54672;46.096;14.470;2023-11-21T11:14:12;15.48;;;7.80;;
67867;SDS011;54672;46.096;14.470;2023-11-21T11:16:41;12.27;;;7.05;;
67867;SDS011;54672;46.096;14.470;2023-11-21T11:19:08;15.15;;;7.93;;
67867;SDS011;54672;46.096;14.470;2023-11-21T11:21:45;27.45;;;12.20;;
67867;SDS011;54672;46.096;14.470;2023-11-21T11:27:11;22.73;;;9.88;;
67867;SDS011;54672;46.096;14.470;2023-11-21T11:30:02;12.45;;;7.43;;
67867;SDS011;54672;46.096;14.470;2023-11-21T11:32:51;14.90;;;7.53;;
67867;SDS011;54672;46.096;14.470;2023-11-21T11:35:34;15.05;;;6.90;;
67867;SDS011;54672;46.096;14.470;2023-11-21T11:38:08;11.68;;;7.05;;
67867;SDS011;54672;46.096;14.470;2023-11-21T11:40:39;13.10;;;7.28;;
67867;SDS011;54672;46.096;14.470;2023-11-21T11:43:06;16.55;;;7.13;;
67867;SDS011;54672;46.096;14.470;2023-11-21T11:45:32;11.10;;;6.47;;
67867;SDS011;54672;46.096;14.470;2023-11-21T11:48:02;11.55;;;6.60;;
67867;SDS011;54672;46.096;14.470;2023-11-21T11:50:28;11.68;;;6.72;;
67867;SDS011;54672;46.096;14.470;2023-11-21T11:52:54;12.90;;;7.07;;
67867;SDS011;54672;46.096;14.470;2023-11-21T11:55:36;12.33;;;7.23;;
67867;SDS011;54672;46.096;14.470;2023-11-21T11:58:04;14.00;;;7.28;;
67867;SDS011;54672;46.096;14.470;2023-11-21T12:02:58;15.02;;;7.50;;
67867;SDS011;54672;46.096;14.470;2023-11-21T12:05:28;19.50;;;9.35;;
67867;SDS011;54672;46.096;14.470;2023-11-21T12:07:59;24.10;;;10.18;;
67867;SDS011;54672;46.096;14.470;2023-11-21T12:10:30;21.05;;;9.50;;
67867;SDS011;54672;46.096;14.470;2023-11-21T12:15:22;216.32;;;60.20;;
67867;SDS011;54672;46.096;14.470;2023-11-21T12:17:49;20.38;;;9.55;;
67867;SDS011;54672;46.096;14.470;2023-11-21T12:20:15;16.50;;;7.65;;
67867;SDS011;54672;46.096;14.470;2023-11-21T12:22:51;34.95;;;16.05;;
67867;SDS011;54672;46.096;14.470;2023-11-21T12:25:19;22.75;;;10.95;;
67867;SDS011;54672;46.096;14.470;2023-11-21T12:27:46;14.10;;;6.43;;
67867;SDS011;54672;46.096;14.470;2023-11-21T12:30:20;24.38;;;11.20;;
67867;SDS011;54672;46.096;14.470;2023-11-21T12:32:52;27.67;;;14.30;;
67867;SDS011;54672;46.096;14.470;2023-11-21T12:35:19;15.30;;;9.70;;
67867;SDS011;54672;46.096;14.470;2023-11-21T12:37:46;18.58;;;10.75;;
67867;SDS011;54672;46.096;14.470;2023-11-21T12:40:12;19.90;;;10.07;;
67867;SDS011;54672;46.096;14.470;2023-11-21T12:42:43;22.27;;;12.45;;
67867;SDS011;54672;46.096;14.470;2023-11-21T12:47:46;13.35;;;7.05;;
67867;SDS011;54672;46.096;14.470;2023-11-21T12:50:21;14.50;;;7.35;;
67867;SDS011;54672;46.096;14.470;2023-11-21T12:52:53;12.60;;;6.60;;
67867;SDS011;54672;46.096;14.470;2023-11-21T12:55:23;12.77;;;7.10;;
67867;SDS011;54672;46.096;14.470;2023-11-21T12:57:49;15.27;;;7.30;;
67867;SDS011;54672;46.096;14.470;2023-11-21T13:00:32;15.98;;;7.25;;
67867;SDS011;54672;46.096;14.470;2023-11-21T13:03:02;12.68;;;8.13;;
67867;SDS011;54672;46.096;14.470;2023-11-21T13:07:56;11.57;;;7.40;;
67867;SDS011;54672;46.096;14.470;2023-11-21T13:10:24;12.63;;;6.68;;
67867;SDS011;54672;46.096;14.470;2023-11-21T13:12:56;12.70;;;7.10;;
67867;SDS011;54672;46.096;14.470;2023-11-21T13:15:24;13.95;;;7.25;;
67867;SDS011;54672;46.096;14.470;2023-11-21T13:17:49;12.90;;;7.63;;
67867;SDS011;54672;46.096;14.470;2023-11-21T13:20:16;14.07;;;7.80;;
67867;SDS011;54672;46.096;14.470;2023-11-21T13:22:45;14.38;;;7.15;;
67867;SDS011;54672;46.096;14.470;2023-11-21T13:25:11;13.90;;;7.38;;
67867;SDS011;54672;46.096;14.470;2023-11-21T13:27:36;13.98;;;7.03;;
67867;SDS011;54672;46.096;14.470;2023-11-21T13:30:02;13.70;;;6.60;;
67867;SDS011;54672;46.096;14.470;2023-11-21T13:32:28;13.65;;;7.45;;
67867;SDS011;54672;46.096;14.470;2023-11-21T13:34:54;14.18;;;7.00;;
67867;SDS011;54672;46.096;14.470;2023-11-21T13:37:20;14.05;;;7.07;;
67867;SDS011;54672;46.096;14.470;2023-11-21T13:39:45;10.95;;;6.53;;
67867;SDS011;54672;46.096;14.470;2023-11-21T13:42:15;13.20;;;6.57;;
67867;SDS011;54672;46.096;14.470;2023-11-21T13:44:41;13.32;;;7.25;;
67867;SDS011;54672;46.096;14.470;2023-11-21T13:47:11;14.25;;;7.35;;
67867;SDS011;54672;46.096;14.470;2023-11-21T13:49:37;14.20;;;7.38;;
67867;SDS011;54672;46.096;14.470;2023-11-21T13:52:05;13.98;;;7.45;;
67867;SDS011;54672;46.096;14.470;2023-11-21T13:54:32;12.00;;;6.82;;
67867;SDS011;54672;46.096;14.470;2023-11-21T13:56:58;13.20;;;7.60;;
67867;SDS011;54672;46.096;14.470;2023-11-21T13:59:25;13.95;;;7.78;;
67867;SDS011;54672;46.096;14.470;2023-11-21T14:01:53;12.85;;;7.00;;
67867;SDS011;54672;46.096;14.470;2023-11-21T14:04:19;11.80;;;7.03;;
67867;SDS011;54672;46.096;14.470;2023-11-21T14:06:48;18.52;;;8.52;;
67867;SDS011;54672;46.096;14.470;2023-11-21T14:09:16;14.93;;;8.35;;
67867;SDS011;54672;46.096;14.470;2023-11-21T14:12:00;15.23;;;7.80;;
67867;SDS011;54672;46.096;14.470;2023-11-21T14:14:31;13.32;;;7.80;;
67867;SDS011;54672;46.096;14.470;2023-11-21T14:16:57;12.85;;;6.57;;
67867;SDS011;54672;46.096;14.470;2023-11-21T14:19:23;14.82;;;6.78;;
67867;SDS011;54672;46.096;14.470;2023-11-21T14:21:53;12.93;;;7.35;;